Terminal Aerodrome Forecast
Issued by NWS Detroit/Pontiac, MI

Home | Current Version | Previous Version | Text Only | Print | Product List | Glossary On
Versions: 1 2 3 4 5 6 7 8 9 10 11 12 13 14
000
FTUS43 KDTX 261721
TAFFNT
TAF
KFNT 261721Z 2618/2718 23012KT P6SM SCT120 BKN200
     FM262300 22004KT P6SM SCT080 BKN120
     FM271400 04006KT P6SM BKN035=

USA.gov is the U.S. government's official web portal to all federal, state and local government web resources and services.